Time;durP1;ratioP1;P1;durP2;ratioP2;P2;SDS_P1;SDS_P2;PMS_P1;PMS_P2;Temp;Humidity;BMP_temperature;BMP_pressure;BME280_temperature;BME280_humidity;BME280_pressure;Samples;Min_cycle;Max_cycle;Signal;HPM_P1;HPM_P2
2023/12/10 00:00:43;;;;;;;8.40;6.97;;;8.50;99.90;;;9.99;78.17;99294.16;3082341;46;20458;-65
2023/12/10 00:03:12;;;;;;;9.77;6.30;;;8.50;99.90;;;10.01;78.23;99302.63;3082011;46;20448;-64
2023/12/10 00:05:40;;;;;;;11.03;6.73;;;8.50;99.90;;;10.06;78.28;99305.47;3082194;46;20450;-66
2023/12/10 00:08:08;;;;;;;13.97;6.70;;;8.60;99.90;;;10.10;78.27;99306.69;3081592;46;20545;-66
2023/12/10 00:10:37;;;;;;;12.73;7.60;;;8.60;99.90;;;10.18;78.21;99315.16;3082469;46;20530;-65
2023/12/10 00:13:05;;;;;;;11.47;7.87;;;8.70;99.90;;;10.22;78.32;99315.56;3082024;46;20446;-66
2023/12/10 00:15:34;;;;;;;11.70;7.27;;;8.70;99.90;;;10.32;78.25;99313.28;3082032;46;20477;-65
2023/12/10 00:18:02;;;;;;;15.80;7.80;;;8.80;99.90;;;10.38;77.79;99323.00;3082538;46;20439;-65
2023/12/10 00:20:30;;;;;;;10.60;6.33;;;8.80;99.90;;;10.44;77.99;99324.78;3082216;46;20437;-66
2023/12/10 00:22:59;;;;;;;18.30;7.40;;;8.90;99.90;;;10.50;77.62;99328.41;3081977;46;21038;-66
2023/12/10 00:25:31;;;;;;;13.50;7.10;;;8.90;99.90;;;10.56;77.73;99338.09;3082209;46;20455;-65
2023/12/10 00:27:59;;;;;;;15.93;7.20;;;9.00;99.90;;;10.62;77.56;99334.63;3082113;46;20554;-64
2023/12/10 00:30:27;;;;;;;18.33;8.27;;;9.00;99.90;;;10.67;77.44;99346.13;3082243;46;20537;-66
2023/12/10 00:32:56;;;;;;;15.13;6.87;;;9.10;99.90;;;10.70;77.24;99345.72;3081783;46;21020;-62
2023/12/10 00:35:24;;;;;;;14.07;6.83;;;9.10;99.90;;;10.70;77.04;99355.44;3081707;46;20458;-64
2023/12/10 00:37:53;;;;;;;15.60;5.80;;;9.20;99.90;;;10.74;77.29;99354.78;3082018;46;21048;-64
2023/12/10 00:40:21;;;;;;;14.83;5.60;;;9.20;99.90;;;10.78;77.22;99361.28;3081889;46;20549;-66
2023/12/10 00:42:49;;;;;;;18.17;6.07;;;9.30;99.90;;;10.80;77.09;99361.88;3081598;46;20485;-66
2023/12/10 00:45:18;;;;;;;21.90;7.20;;;9.30;99.90;;;10.85;77.01;99364.69;3082215;46;20514;-66
2023/12/10 00:47:46;;;;;;;14.43;5.23;;;9.30;99.90;;;10.92;76.93;99375.16;3082118;46;20909;-66
2023/12/10 00:50:15;;;;;;;22.20;6.63;;;9.40;99.90;;;10.97;76.81;99385.06;3081872;46;20498;-66
2023/12/10 00:52:43;;;;;;;21.97;6.53;;;9.40;99.90;;;11.01;76.83;99384.44;3081648;46;21005;-64
2023/12/10 00:55:11;;;;;;;21.07;6.27;;;9.50;99.90;;;11.04;76.39;99385.84;3082063;46;20571;-66
2023/12/10 00:57:40;;;;;;;20.87;5.60;;;9.50;99.90;;;11.04;76.45;99386.66;3081623;46;20439;-64
2023/12/10 01:00:09;;;;;;;21.57;6.07;;;9.50;99.90;;;11.01;76.46;99399.41;3082027;46;20448;-64
2023/12/10 01:02:40;;;;;;;22.50;6.63;;;9.60;99.90;;;11.01;76.75;99400.22;3081543;46;21082;-67
2023/12/10 01:05:09;;;;;;;16.70;5.93;;;9.60;99.90;;;11.09;76.65;99404.44;3081940;46;20493;-64
2023/12/10 01:07:37;;;;;;;21.17;6.53;;;9.60;99.90;;;11.14;76.69;99410.72;3081869;46;20614;-65
2023/12/10 01:10:06;;;;;;;24.30;6.87;;;9.70;99.90;;;11.23;76.55;99419.16;3081819;46;21149;-66
2023/12/10 01:12:36;;;;;;;16.90;5.90;;;9.70;99.90;;;11.26;76.35;99424.00;3081509;46;21155;-66
2023/12/10 01:15:06;;;;;;;26.80;6.57;;;9.70;99.90;;;11.33;76.29;99436.13;3081147;46;20444;-66
2023/12/10 01:17:34;;;;;;;23.20;5.73;;;9.70;99.90;;;11.39;76.24;99435.28;3081542;46;20569;-66
2023/12/10 01:20:06;;;;;;;27.23;6.77;;;9.80;99.90;;;11.40;75.63;99455.34;3081648;46;20557;-65
2023/12/10 01:22:34;;;;;;;22.67;7.17;;;9.80;99.90;;;11.44;75.88;99459.16;3081651;46;20459;-66
2023/12/10 01:25:03;;;;;;;25.10;6.03;;;9.80;99.90;;;11.44;75.36;99468.88;3081043;46;20488;-65
2023/12/10 01:27:31;;;;;;;24.53;7.20;;;9.90;99.90;;;11.47;75.33;99473.72;3081343;46;20530;-66
2023/12/10 01:29:59;;;;;;;24.47;6.27;;;9.90;99.90;;;11.50;75.52;99473.31;3082078;46;20981;-66
2023/12/10 01:32:28;;;;;;;25.83;6.17;;;9.90;99.90;;;11.43;74.51;99475.19;3080073;46;20432;-66
2023/12/10 01:34:57;;;;;;;24.90;6.37;;;9.90;99.60;;;11.46;75.11;99482.66;3081200;46;21049;-66
2023/12/10 01:37:26;;;;;;;23.37;6.27;;;10.00;99.20;;;11.49;74.96;99487.50;3081325;46;20434;-66
2023/12/10 01:39:54;;;;;;;25.47;6.30;;;10.00;99.20;;;11.55;75.30;99489.31;3081416;46;21005;-64
2023/12/10 01:42:23;;;;;;;26.03;6.93;;;10.00;99.10;;;11.58;75.24;99494.13;3080210;46;20436;-66
2023/12/10 01:44:51;;;;;;;19.43;5.00;;;10.00;99.10;;;11.60;74.90;99489.44;3081169;46;20447;-66
2023/12/10 01:47:20;;;;;;;23.50;6.80;;;10.00;99.10;;;11.60;74.34;99500.00;3081096;46;20432;-64
2023/12/10 01:49:48;;;;;;;24.23;6.00;;;10.10;98.90;;;11.61;74.35;99496.34;3081599;46;21000;-65
2023/12/10 01:52:17;;;;;;;21.50;6.03;;;10.10;99.00;;;11.63;74.20;99496.94;3081252;46;20542;-66
2023/12/10 01:54:45;;;;;;;22.97;5.67;;;10.10;98.70;;;11.66;74.60;99507.06;3080861;46;20997;-64
2023/12/10 01:57:16;;;;;;;24.80;6.83;;;10.10;98.80;;;11.67;74.28;99506.03;3081100;46;20433;-65
2023/12/10 01:59:44;;;;;;;20.10;5.73;;;10.10;98.70;;;11.69;74.02;99509.31;3081389;46;20508;-66
2023/12/10 02:02:12;;;;;;;24.27;6.53;;;10.10;99.10;;;11.66;73.18;99509.72;3081088;46;21094;-66
2023/12/10 02:04:41;;;;;;;17.50;5.47;;;10.10;98.40;;;11.66;73.71;99509.72;3080547;46;20634;-64
2023/12/10 02:07:09;;;;;;;17.33;4.93;;;10.10;98.50;;;11.67;73.76;99511.31;3081072;46;20430;-65
2023/12/10 02:09:38;;;;;;;21.90;6.07;;;10.10;98.40;;;11.65;72.99;99508.09;3081441;46;20538;-65
2023/12/10 02:12:06;;;;;;;22.13;5.63;;;10.10;98.30;;;11.67;73.25;99516.56;3081047;46;20447;-64
2023/12/10 02:14:34;;;;;;;19.67;5.43;;;10.10;98.30;;;11.69;73.48;99514.59;3080532;46;20481;-66
2023/12/10 02:17:03;;;;;;;22.77;6.17;;;10.10;98.30;;;11.68;73.47;99512.16;3081112;46;20646;-65
2023/12/10 02:19:33;;;;;;;17.63;6.00;;;10.10;98.60;;;11.66;72.95;99508.91;3081389;46;20428;-66
2023/12/10 02:22:04;;;;;;;23.57;6.03;;;10.10;98.10;;;11.64;73.01;99511.75;3081263;46;20427;-64
2023/12/10 02:24:48;;;;;;;22.17;5.77;;;10.10;98.00;;;11.55;72.15;99519.06;3080514;46;20580;-65
2023/12/10 02:27:17;;;;;;;20.13;6.13;;;10.10;97.70;;;11.53;72.14;99518.47;3080303;46;20451;-66
2023/12/10 02:29:45;;;;;;;18.20;6.23;;;10.10;97.70;;;11.54;73.05;99521.94;3080349;46;20455;-66
2023/12/10 02:32:13;;;;;;;25.20;5.23;;;10.10;97.90;;;11.53;72.61;99522.94;3080079;46;20486;-66
2023/12/10 02:34:42;;;;;;;27.77;6.67;;;10.10;97.80;;;11.52;72.14;99530.06;3080090;46;20481;-66
2023/12/10 02:37:10;;;;;;;19.33;5.70;;;10.10;97.60;;;11.52;72.34;99535.34;3080859;46;20431;-68
2023/12/10 02:39:39;;;;;;;26.67;5.20;;;10.00;97.70;;;11.47;71.67;99529.06;3081144;46;20458;-66
2023/12/10 02:42:07;;;;;;;22.27;6.60;;;10.00;97.30;;;11.49;72.18;99524.38;3080808;46;20511;-65
2023/12/10 02:44:35;;;;;;;20.63;5.90;;;10.00;97.50;;;11.51;72.53;99527.63;3081664;46;20603;-66
2023/12/10 02:47:04;;;;;;;22.23;6.03;;;10.10;97.60;;;11.54;72.31;99521.94;3083283;46;20476;-66
2023/12/10 02:49:32;;;;;;;17.10;5.17;;;10.00;97.60;;;11.55;72.45;99531.47;3083042;46;20430;-64
2023/12/10 02:52:01;;;;;;;22.93;6.40;;;10.00;97.60;;;11.48;70.79;99528.06;3083219;46;20513;-66
2023/12/10 02:54:29;;;;;;;26.17;6.40;;;10.00;96.90;;;11.51;71.98;99522.34;3082767;46;20490;-66
2023/12/10 02:56:57;;;;;;;24.30;7.20;;;10.00;97.30;;;11.58;72.08;99533.66;3083249;46;20427;-66
2023/12/10 02:59:26;;;;;;;26.53;6.40;;;10.00;97.30;;;11.53;70.81;99530.84;3083080;46;21110;-65
2023/12/10 03:01:54;;;;;;;28.50;7.50;;;10.10;97.00;;;11.59;71.73;99530.03;3082795;46;20546;-66
2023/12/10 03:04:22;;;;;;;21.93;5.47;;;10.00;96.90;;;11.60;71.19;99536.09;3082724;46;20573;-66
2023/12/10 03:06:51;;;;;;;24.23;6.47;;;10.10;97.20;;;11.60;70.94;99536.88;3082876;46;20464;-66
2023/12/10 03:09:19;;;;;;;22.20;5.33;;;10.10;97.10;;;11.58;70.67;99533.66;3083130;46;20432;-66
2023/12/10 03:11:48;;;;;;;23.57;6.63;;;10.10;96.80;;;11.60;71.30;99539.53;3083248;46;20452;-66
2023/12/10 03:14:16;;;;;;;24.83;6.30;;;10.10;96.90;;;11.61;71.61;99533.25;3082600;46;21103;-65
2023/12/10 03:16:44;;;;;;;22.27;6.00;;;10.10;97.00;;;11.63;71.69;99535.66;3082378;46;21005;-66
2023/12/10 03:19:13;;;;;;;26.87;5.67;;;10.10;96.80;;;11.64;71.40;99534.66;3082977;46;20681;-64
2023/12/10 03:21:41;;;;;;;30.33;7.20;;;10.10;96.80;;;11.61;70.90;99540.34;3082994;46;20536;-66
2023/12/10 03:24:10;;;;;;;23.13;6.37;;;10.10;96.80;;;11.63;71.24;99543.56;3082689;46;21106;-64
2023/12/10 03:26:38;;;;;;;21.17;5.63;;;10.10;96.90;;;11.64;71.38;99539.94;3082599;46;20460;-66
2023/12/10 03:29:07;;;;;;;29.03;6.30;;;10.10;96.90;;;11.62;71.06;99540.16;3082819;46;20430;-65
2023/12/10 03:31:35;;;;;;;16.97;5.90;;;10.10;96.90;;;11.63;71.38;99535.66;3083059;46;20427;-65
2023/12/10 03:34:03;;;;;;;21.37;6.07;;;10.10;96.90;;;11.63;71.41;99535.66;3082038;46;20529;-66
2023/12/10 03:36:32;;;;;;;19.83;5.73;;;10.10;97.10;;;11.61;71.49;99535.88;3082815;46;20489;-65
2023/12/10 03:39:00;;;;;;;23.40;5.80;;;10.10;97.00;;;11.53;70.88;99536.94;3082641;46;20988;-64
2023/12/10 03:41:29;;;;;;;23.07;5.43;;;10.10;96.90;;;11.51;71.15;99532.88;3082750;46;20509;-64
2023/12/10 03:43:57;;;;;;;23.57;6.20;;;10.00;97.00;;;11.48;71.04;99543.88;3082197;46;20439;-66
2023/12/10 03:46:25;;;;;;;23.60;5.63;;;10.00;97.00;;;11.46;71.13;99543.25;3082745;46;20476;-66
2023/12/10 03:48:54;;;;;;;27.93;6.17;;;10.00;97.30;;;11.38;70.56;99543.50;3082561;46;20993;-66
2023/12/10 03:51:22;;;;;;;25.73;5.40;;;10.00;96.80;;;11.37;71.17;99547.13;3082879;46;20511;-65
2023/12/10 03:53:51;;;;;;;20.63;4.87;;;10.00;96.90;;;11.34;71.03;99539.66;3082332;46;20440;-65
2023/12/10 03:56:19;;;;;;;18.33;4.70;;;9.90;97.40;;;11.28;70.92;99541.31;3081908;46;20428;-66
2023/12/10 03:58:48;;;;;;;21.70;4.70;;;9.90;97.50;;;11.20;71.22;99543.34;3082619;46;20459;-66
2023/12/10 04:01:17;;;;;;;15.43;4.80;;;9.90;97.40;;;11.22;71.64;99542.13;3082849;46;20432;-66
2023/12/10 04:03:45;;;;;;;20.50;4.60;;;9.90;97.60;;;11.21;71.45;99552.88;3082000;46;20439;-66
2023/12/10 04:06:14;;;;;;;20.33;4.80;;;9.80;97.60;;;11.14;71.24;99544.19;3082687;46;20431;-66
2023/12/10 04:08:43;;;;;;;18.50;4.77;;;9.80;97.50;;;11.13;71.78;99545.19;3082500;46;21048;-66
2023/12/10 04:11:12;;;;;;;20.50;4.67;;;9.80;97.60;;;11.15;71.96;99549.25;3083137;46;20484;-64
2023/12/10 04:13:40;;;;;;;21.80;4.97;;;9.80;97.70;;;11.11;71.51;99544.59;3081936;46;20450;-66
2023/12/10 04:16:08;;;;;;;12.67;4.50;;;9.70;97.60;;;11.06;71.47;99544.41;3082530;46;20428;-66
2023/12/10 04:18:37;;;;;;;19.63;5.30;;;9.70;97.60;;;11.05;71.55;99553.34;3083064;46;20580;-66
2023/12/10 04:21:05;;;;;;;17.57;5.07;;;9.70;97.60;;;11.02;71.74;99553.75;3082593;46;20533;-66
2023/12/10 04:23:34;;;;;;;23.50;5.23;;;9.70;97.60;;;10.92;72.06;99546.28;3081732;46;21044;-66
2023/12/10 04:26:02;;;;;;;19.50;4.20;;;9.70;97.60;;;10.90;72.22;99540.41;3082255;46;20436;-66
2023/12/10 04:28:31;;;;;;;11.43;3.77;;;9.70;97.70;;;10.92;72.20;99540.19;3082043;46;20481;-66
2023/12/10 04:30:59;;;;;;;13.83;4.17;;;9.70;97.80;;;10.88;72.07;99532.72;3082221;46;20460;-64
2023/12/10 04:33:27;;;;;;;15.67;4.40;;;9.60;97.60;;;10.95;72.61;99542.41;3081538;46;20487;-65
2023/12/10 04:35:56;;;;;;;17.67;4.27;;;9.60;97.90;;;10.93;72.09;99536.56;3081999;46;20518;-65
2023/12/10 04:38:24;;;;;;;16.97;4.13;;;9.60;97.80;;;10.88;72.07;99543.25;3082007;46;20452;-63
2023/12/10 04:40:53;;;;;;;11.87;3.90;;;9.70;97.90;;;10.87;72.38;99536.38;3082214;46;20455;-64
2023/12/10 04:43:21;;;;;;;8.10;3.47;;;9.60;97.80;;;10.94;72.59;99535.53;3081584;46;20541;-64
2023/12/10 04:45:49;;;;;;;14.50;3.03;;;9.60;98.00;;;10.89;72.23;99539.59;3082150;46;20487;-66
2023/12/10 04:48:18;;;;;;;16.93;3.70;;;9.60;97.90;;;10.93;72.64;99540.00;3082320;46;20510;-66
2023/12/10 04:50:47;;;;;;;12.30;3.50;;;9.60;98.00;;;10.91;72.26;99535.97;3082093;46;20598;-64
2023/12/10 04:53:15;;;;;;;17.73;4.03;;;9.60;97.90;;;10.89;72.54;99539.59;3081496;46;20484;-65
2023/12/10 04:55:43;;;;;;;11.40;4.03;;;9.60;98.00;;;10.87;72.46;99535.53;3081882;46;20428;-65
2023/12/10 04:58:12;;;;;;;16.93;4.13;;;9.60;97.90;;;10.85;72.34;99541.03;3081957;46;20460;-66
2023/12/10 05:00:40;;;;;;;15.43;3.80;;;9.60;97.90;;;10.90;73.18;99529.88;3081838;46;20474;-64
2023/12/10 05:03:09;;;;;;;15.20;3.63;;;9.60;98.10;;;10.88;72.77;99527.47;3081427;46;20439;-66
2023/12/10 05:05:37;;;;;;;14.57;3.63;;;9.60;98.00;;;10.92;72.95;99524.41;3081962;46;20479;-65
2023/12/10 05:08:06;;;;;;;9.63;3.87;;;9.60;98.10;;;10.92;72.74;99521.75;3081839;46;20434;-66
2023/12/10 05:10:34;;;;;;;15.43;4.37;;;9.50;98.20;;;10.90;72.73;99519.34;3081993;46;20463;-66
2023/12/10 05:13:03;;;;;;;17.67;3.80;;;9.60;98.20;;;10.76;72.88;99523.84;3081763;46;20460;-64
2023/12/10 05:15:32;;;;;;;11.80;3.13;;;9.60;98.00;;;10.81;73.10;99513.50;3081747;46;20462;-66
2023/12/10 05:18:02;;;;;;;16.10;3.40;;;9.50;98.10;;;10.70;73.15;99532.53;3082237;46;20443;-66
2023/12/10 05:20:31;;;;;;;14.40;3.23;;;9.60;98.10;;;10.75;73.37;99535.38;3081733;46;20510;-66
2023/12/10 05:23:00;;;;;;;11.13;3.17;;;9.60;98.10;;;10.68;73.35;99526.69;3081488;46;20927;-66
2023/12/10 05:25:30;;;;;;;13.93;3.53;;;9.50;98.50;;;10.65;73.77;99532.34;3081670;46;21012;-67
2023/12/10 05:27:59;;;;;;;13.60;3.50;;;9.50;98.30;;;10.64;73.77;99520.22;3081435;46;20431;-65
2023/12/10 05:30:27;;;;;;;9.20;3.10;;;9.50;98.40;;;10.67;73.80;99514.53;3081560;46;20488;-66
2023/12/10 05:32:57;;;;;;;12.43;3.93;;;9.40;98.50;;;10.64;73.79;99519.41;3081246;46;20428;-65
2023/12/10 05:35:27;;;;;;;15.87;3.60;;;9.40;98.50;;;10.67;73.83;99526.91;3081188;46;20434;-64
2023/12/10 05:37:55;;;;;;;10.17;2.73;;;9.40;98.60;;;10.65;73.94;99513.94;3081513;46;20570;-66
2023/12/10 05:40:25;;;;;;;12.40;3.73;;;9.30;98.60;;;10.55;73.41;99515.38;3081670;46;20563;-66
2023/12/10 05:42:54;;;;;;;12.67;3.47;;;9.30;98.40;;;10.54;73.78;99521.63;3081095;46;20479;-66
2023/12/10 05:45:23;;;;;;;10.27;2.43;;;9.30;98.40;;;10.50;73.58;99523.88;3081379;46;20435;-66
2023/12/10 05:47:51;;;;;;;12.47;3.00;;;9.30;98.40;;;10.55;73.93;99521.44;3081775;46;20561;-65
2023/12/10 05:50:20;;;;;;;11.13;3.30;;;9.30;98.50;;;10.57;73.96;99518.59;3081293;46;21122;-63
2023/12/10 05:52:48;;;;;;;11.17;3.30;;;9.30;98.60;;;10.60;73.94;99529.50;3081286;46;20577;-64
2023/12/10 05:55:17;;;;;;;10.83;3.27;;;9.30;98.70;;;10.61;73.77;99528.50;3081492;46;21074;-66
2023/12/10 05:57:45;;;;;;;10.87;3.43;;;9.30;98.70;;;10.57;73.73;99526.50;3081412;46;20584;-65
2023/12/10 06:00:14;;;;;;;11.67;3.30;;;9.30;98.60;;;10.61;74.11;99520.63;3081249;46;20477;-64
2023/12/10 06:02:42;;;;;;;9.67;2.93;;;9.30;98.70;;;10.56;74.05;99517.78;3081000;46;20428;-66
2023/12/10 06:05:11;;;;;;;10.40;2.93;;;9.20;98.70;;;10.56;73.99;99522.22;3081189;46;20434;-66
2023/12/10 06:07:39;;;;;;;10.40;2.77;;;9.30;98.80;;;10.57;74.07;99522.06;3081269;46;20572;-65
2023/12/10 06:10:08;;;;;;;10.63;3.03;;;9.20;98.80;;;10.53;74.18;99527.94;3081432;46;20429;-64
2023/12/10 06:12:37;;;;;;;8.77;2.60;;;9.20;98.70;;;10.53;74.24;99526.09;3080829;46;20986;-65
2023/12/10 06:15:06;;;;;;;9.63;2.90;;;9.30;98.80;;;10.52;74.37;99521.84;3080788;46;20450;-65
2023/12/10 06:17:34;;;;;;;8.30;2.57;;;9.20;99.10;;;10.55;74.47;99523.25;3081276;46;20456;-65
2023/12/10 06:20:05;;;;;;;8.53;2.50;;;9.20;99.00;;;10.47;74.83;99524.28;3080824;46;20587;-64
2023/12/10 06:22:33;;;;;;;8.00;2.03;;;9.20;98.90;;;10.44;74.96;99519.41;3081038;46;20427;-66
2023/12/10 06:25:02;;;;;;;8.53;2.47;;;9.20;99.00;;;10.42;75.10;99510.94;3080625;46;20448;-66
2023/12/10 06:27:30;;;;;;;11.10;2.97;;;9.20;99.00;;;10.43;75.12;99507.28;3080918;46;20427;-65
2023/12/10 06:29:58;;;;;;;11.57;2.60;;;9.20;99.10;;;10.35;75.33;99512.75;3081235;46;20493;-65
2023/12/10 06:32:27;;;;;;;7.60;2.13;;;9.20;99.00;;;10.34;75.32;99521.66;3080612;46;20427;-66
2023/12/10 06:34:56;;;;;;;11.50;3.13;;;9.20;99.10;;;10.28;75.71;99511.94;3080504;46;20444;-61
2023/12/10 06:37:25;;;;;;;9.07;3.10;;;9.20;99.20;;;10.31;75.90;99513.38;3081029;46;20462;-65
2023/12/10 06:39:54;;;;;;;9.90;3.20;;;9.10;99.20;;;10.34;75.80;99519.00;3080936;46;21005;-66
2023/12/10 06:42:22;;;;;;;9.93;2.73;;;9.10;99.40;;;10.29;76.07;99521.47;3080646;46;20553;-67
2023/12/10 06:44:51;;;;;;;9.63;2.60;;;9.10;99.40;;;10.24;76.08;99523.06;3080626;46;20463;-66
2023/12/10 06:47:19;;;;;;;9.73;2.57;;;9.00;99.40;;;10.29;76.32;99521.47;3080793;46;20432;-66
2023/12/10 06:49:48;;;;;;;11.83;3.33;;;9.00;99.60;;;10.28;76.25;99525.09;3081069;46;20452;-65
2023/12/10 06:52:17;;;;;;;11.33;3.03;;;9.10;99.70;;;10.31;76.54;99523.88;3080872;46;20549;-66
2023/12/10 06:54:45;;;;;;;11.57;3.20;;;9.10;99.70;;;10.32;76.28;99518.41;3080449;46;21001;-66
2023/12/10 06:57:14;;;;;;;12.97;2.87;;;9.00;99.70;;;10.34;76.41;99502.44;3080659;46;20584;-65
2023/12/10 06:59:42;;;;;;;7.23;2.67;;;9.10;99.80;;;10.31;76.43;99516.00;3080806;46;20932;-65
2023/12/10 07:02:11;;;;;;;9.43;2.63;;;9.00;99.70;;;10.34;76.60;99519.00;3080624;46;20516;-66
2023/12/10 07:04:39;;;;;;;8.80;2.63;;;9.10;99.80;;;10.38;76.33;99514.16;3079949;46;21031;-66
2023/12/10 07:07:07;;;;;;;9.80;2.60;;;9.00;99.80;;;10.37;76.45;99523.88;3080666;46;20484;-63
2023/12/10 07:09:36;;;;;;;8.93;2.87;;;9.00;99.90;;;10.37;76.39;99523.06;3080409;46;20907;-65
2023/12/10 07:12:05;;;;;;;8.70;2.93;;;9.10;99.90;;;10.36;76.58;99514.38;3080782;46;20462;-66
2023/12/10 07:14:33;;;;;;;8.27;2.83;;;9.00;99.90;;;10.28;76.67;99521.66;3079186;46;20460;-65
2023/12/10 07:17:02;;;;;;;11.13;2.77;;;9.00;99.90;;;10.32;76.82;99512.38;3080637;46;20434;-65
2023/12/10 07:19:30;;;;;;;11.13;2.87;;;9.00;99.90;;;10.30;76.90;99522.25;3080512;46;20465;-66
2023/12/10 07:21:59;;;;;;;14.90;3.57;;;9.00;99.90;;;10.32;76.87;99509.75;3080281;46;20439;-64
2023/12/10 07:24:27;;;;;;;7.00;2.80;;;9.00;99.90;;;10.38;76.94;99520.25;3079851;46;20533;-65
2023/12/10 07:26:56;;;;;;;9.20;2.73;;;9.10;99.90;;;10.37;76.87;99518.63;3080474;46;20427;-65
2023/12/10 07:29:24;;;;;;;6.67;2.47;;;9.00;99.90;;;10.36;76.99;99526.72;3079650;46;20431;-66
2023/12/10 07:31:52;;;;;;;12.97;3.00;;;9.10;99.90;;;10.34;77.16;99531.38;3082021;46;20455;-65
2023/12/10 07:34:21;;;;;;;10.00;2.87;;;9.10;99.90;;;10.33;77.26;99524.47;3082083;46;20611;-67
2023/12/10 07:36:49;;;;;;;12.20;3.40;;;9.10;99.90;;;10.36;77.57;99531.97;3082705;46;20457;-65
2023/12/10 07:39:18;;;;;;;9.50;2.63;;;9.10;99.90;;;10.29;77.69;99536.44;3082863;46;20456;-63
2023/12/10 07:41:47;;;;;;;8.37;3.10;;;9.10;99.90;;;10.27;77.88;99533.97;3082590;46;20432;-65
2023/12/10 07:44:16;;;;;;;7.57;2.53;;;9.10;99.90;;;10.32;78.13;99536.81;3082046;46;20482;-66
2023/12/10 07:46:44;;;;;;;6.90;2.30;;;9.10;99.90;;;10.42;77.69;99544.31;3082975;46;20435;-66
2023/12/10 07:49:13;;;;;;;9.20;2.63;;;9.10;99.90;;;10.45;77.69;99546.53;3082750;46;20492;-65
2023/12/10 07:51:41;;;;;;;9.43;2.50;;;9.10;99.90;;;10.50;77.37;99555.44;3082932;46;20482;-63
2023/12/10 07:54:10;;;;;;;8.87;2.57;;;9.10;99.90;;;10.55;77.44;99553.03;3082027;46;20513;-66
2023/12/10 07:56:38;;;;;;;5.90;2.20;;;9.20;99.90;;;10.57;77.36;99556.25;3082511;46;20452;-66
2023/12/10 07:59:06;;;;;;;9.97;2.83;;;9.20;99.90;;;10.63;77.44;99565.94;3082526;46;20432;-66
2023/12/10 08:01:35;;;;;;;9.03;2.70;;;9.20;99.90;;;10.67;77.02;99567.16;3082415;46;21059;-65
2023/12/10 08:04:04;;;;;;;7.13;2.80;;;9.20;99.90;;;10.67;77.18;99556.63;3082085;46;20440;-66
2023/12/10 08:06:32;;;;;;;9.73;2.83;;;9.20;99.90;;;10.71;77.43;99565.75;3082413;46;21011;-66
2023/12/10 08:09:04;;;;;;;7.70;2.37;;;9.20;99.90;;;10.78;77.20;99581.53;3082463;46;20431;-65
2023/12/10 08:11:32;;;;;;;7.73;2.50;;;9.30;99.90;;;10.83;77.12;99577.28;3082495;46;20570;-65
2023/12/10 08:14:01;;;;;;;3.20;1.70;;;9.30;99.90;;;10.85;77.24;99580.50;3081832;46;20481;-66
2023/12/10 08:16:30;;;;;;;7.20;2.13;;;9.30;99.90;;;10.89;77.00;99584.34;3081816;46;20462;-66
2023/12/10 08:19:02;;;;;;;4.20;1.80;;;9.30;99.90;;;10.93;76.99;99576.84;3082269;46;20449;-65
2023/12/10 08:21:31;;;;;;;5.07;1.73;;;9.40;99.90;;;10.96;77.07;99575.63;3082304;46;21115;-63
2023/12/10 08:23:59;;;;;;;3.70;1.60;;;9.40;99.90;;;10.99;76.94;99576.03;3081894;46;20482;-66
2023/12/10 08:26:28;;;;;;;4.90;1.90;;;9.40;99.90;;;10.92;76.99;99584.94;3082004;46;21026;-65
2023/12/10 08:28:56;;;;;;;3.70;1.73;;;9.40;99.90;;;10.96;77.10;99581.69;3082041;46;20541;-66
2023/12/10 08:31:25;;;;;;;4.40;1.77;;;9.50;99.90;;;11.00;77.09;99587.38;3082112;46;20571;-64
2023/12/10 08:33:53;;;;;;;5.00;1.90;;;9.50;99.90;;;11.02;77.15;99595.88;3081323;46;20462;-66
2023/12/10 08:36:22;;;;;;;4.53;1.57;;;9.50;99.90;;;11.05;77.08;99595.47;3082334;46;20431;-66
2023/12/10 08:38:50;;;;;;;2.83;1.07;;;9.50;99.90;;;11.07;76.96;99614.50;3082200;46;20432;-65
2023/12/10 08:41:19;;;;;;;3.63;1.30;;;9.50;99.90;;;11.08;77.10;99611.66;3081745;46;20432;-66
2023/12/10 08:43:47;;;;;;;4.07;1.10;;;9.60;99.90;;;11.09;77.08;99615.91;3081857;46;21012;-66
2023/12/10 08:46:15;;;;;;;5.03;1.60;;;9.60;99.90;;;11.14;77.16;99621.38;3082018;46;21261;-66
2023/12/10 08:48:45;;;;;;;3.90;1.43;;;9.60;99.90;;;11.17;77.12;99622.78;3081793;46;20449;-64
2023/12/10 08:51:14;;;;;;;3.43;1.60;;;9.60;99.90;;;11.21;77.17;99627.44;3082339;46;20427;-66
2023/12/10 08:53:42;;;;;;;3.33;1.70;;;9.60;99.90;;;11.26;77.04;99639.97;3081490;46;20464;-65
2023/12/10 08:56:11;;;;;;;4.00;1.63;;;9.70;99.90;;;11.27;77.27;99646.84;3082164;46;21024;-66
2023/12/10 08:58:39;;;;;;;2.50;1.50;;;9.70;99.90;;;11.30;76.95;99649.09;3081936;46;20439;-66
2023/12/10 09:01:08;;;;;;;4.77;1.77;;;9.70;99.90;;;11.33;77.06;99654.75;3081964;46;20573;-66
2023/12/10 09:03:36;;;;;;;4.33;1.70;;;9.80;99.90;;;11.36;76.90;99662.22;3081287;46;20512;-66
2023/12/10 09:06:05;;;;;;;5.90;1.53;;;9.80;99.90;;;11.41;76.85;99659.78;3082096;46;20431;-64
2023/12/10 09:08:33;;;;;;;4.07;1.90;;;9.80;99.90;;;11.41;76.42;99669.53;3081910;46;20452;-65
2023/12/10 09:11:04;;;;;;;3.43;1.40;;;9.80;99.90;;;11.46;76.94;99680.25;3082087;46;20568;-65
2023/12/10 09:13:35;;;;;;;3.93;1.40;;;9.90;99.90;;;11.50;76.91;99687.53;3081325;46;20440;-66
2023/12/10 09:16:06;;;;;;;5.37;1.83;;;9.90;99.90;;;11.55;76.56;99681.66;3081626;46;20503;-67
2023/12/10 09:18:34;;;;;;;4.57;1.77;;;9.90;99.90;;;11.58;76.58;99692.59;3081961;43;20429;-65
2023/12/10 09:21:03;;;;;;;6.53;1.87;;;10.00;99.70;;;11.61;76.09;99701.91;3081506;46;20436;-66
2023/12/10 09:23:31;;;;;;;7.73;1.40;;;10.00;99.40;;;11.65;76.14;99708.38;3080921;46;20440;-66
2023/12/10 09:26:00;;;;;;;4.43;1.50;;;10.10;99.60;;;11.68;75.53;99715.91;3081525;46;20475;-66
2023/12/10 09:28:29;;;;;;;7.10;1.90;;;10.10;99.50;;;11.75;76.29;99718.53;3081463;46;20459;-63
2023/12/10 09:30:57;;;;;;;5.13;1.47;;;10.10;99.40;;;11.80;75.87;99721.34;3081887;46;20516;-66
2023/12/10 09:33:25;;;;;;;5.47;1.60;;;10.20;99.50;;;11.85;75.26;99724.19;3081133;46;20474;-66
2023/12/10 09:35:54;;;;;;;4.63;1.63;;;10.20;99.40;;;11.91;75.36;99728.66;3081017;46;20541;-64
2023/12/10 09:38:22;;;;;;;7.43;1.70;;;10.30;99.20;;;11.95;74.86;99729.84;3081185;46;20464;-66
2023/12/10 09:40:51;;;;;;;2.33;1.20;;;10.30;99.20;;;11.98;74.84;99732.84;3081819;46;20519;-66
2023/12/10 09:43:19;;;;;;;3.73;1.27;;;10.30;98.80;;;12.03;75.13;99743.59;3080764;46;20477;-66
2023/12/10 09:45:47;;;;;;;7.03;1.50;;;10.40;98.90;;;12.07;74.07;99758.00;3081588;46;20505;-66
2023/12/10 09:48:17;;;;;;;8.27;1.60;;;10.40;98.80;;;12.10;74.20;99754.91;3081339;46;20431;-66
2023/12/10 09:50:46;;;;;;;2.73;1.30;;;10.50;98.50;;;12.12;74.35;99758.16;3081534;46;20428;-66
2023/12/10 09:53:14;;;;;;;4.80;1.60;;;10.50;98.50;;;12.14;74.21;99766.69;3080145;46;20444;-66
2023/12/10 09:55:42;;;;;;;4.90;1.40;;;10.50;98.40;;;12.16;73.86;99788.41;3080927;46;20513;-66
2023/12/10 09:58:11;;;;;;;2.57;1.00;;;10.50;98.40;;;12.14;73.05;99786.97;3080667;46;21046;-64
2023/12/10 10:00:40;;;;;;;6.47;1.37;;;10.60;98.30;;;12.16;73.80;99790.22;3081160;46;20570;-66
2023/12/10 10:03:11;;;;;;;4.53;1.30;;;10.60;98.30;;;12.18;73.94;99796.91;3080506;46;20443;-66
2023/12/10 10:05:39;;;;;;;4.40;1.30;;;10.60;98.20;;;12.24;73.67;99792.63;3080804;46;20491;-66
2023/12/10 10:08:09;;;;;;;3.53;1.57;;;10.60;97.90;;;12.30;72.99;99806.81;3081442;46;20436;-66
2023/12/10 10:10:37;;;;;;;3.83;1.50;;;10.60;98.00;;;12.34;73.32;99805.38;3080778;46;20493;-66
2023/12/10 10:13:06;;;;;;;6.80;1.50;;;10.70;98.20;;;12.38;73.12;99810.03;3080429;46;20482;-64
2023/12/10 10:15:34;;;;;;;4.40;1.60;;;10.70;98.00;;;12.44;73.00;99811.81;3081135;46;20443;-66
2023/12/10 10:18:06;;;;;;;5.60;2.10;;;10.80;98.10;;;12.48;72.76;99825.44;3081258;46;20432;-66
2023/12/10 10:20:34;;;;;;;6.27;1.87;;;10.80;97.90;;;12.51;72.97;99817.06;3080743;46;21013;-64
2023/12/10 10:23:04;;;;;;;4.50;1.30;;;10.80;98.10;;;12.56;72.87;99815.44;3080852;46;20457;-66
2023/12/10 10:25:32;;;;;;;4.43;1.50;;;10.90;98.00;;;12.59;72.24;99816.84;3080563;46;20490;-66